createdAt,value
2019-04-06T00:00:36.146Z,71.53
2019-04-06T00:03:03.155Z,85.53
2019-04-06T00:05:29.812Z,74.40
2019-04-06T00:07:56.458Z,73.83
2019-04-06T00:10:23.398Z,73.90
2019-04-06T00:12:50.322Z,75.73
2019-04-06T00:15:17.089Z,80.07
2019-04-06T00:17:43.743Z,81.90
2019-04-06T00:20:10.767Z,74.47
2019-04-06T00:22:37.405Z,77.83
2019-04-06T00:25:04.276Z,76.83
2019-04-06T00:27:30.915Z,74.07
2019-04-06T00:29:57.551Z,71.33
2019-04-06T00:32:34.141Z,72.67
2019-04-06T00:35:00.951Z,64.87
2019-04-06T00:37:27.589Z,70.53
2019-04-06T00:39:54.206Z,66.43
2019-04-06T00:42:21.508Z,71.83
2019-04-06T00:44:48.166Z,62.03
2019-04-06T00:47:14.856Z,66.07
2019-04-06T00:49:41.527Z,68.77
2019-04-06T00:52:08.337Z,61.10
2019-04-06T00:54:34.928Z,62.97
2019-04-06T00:57:01.552Z,67.00
2019-04-06T00:59:28.221Z,55.17
2019-04-06T01:01:54.847Z,57.60
2019-04-06T01:04:21.704Z,57.97
2019-04-06T01:06:48.303Z,56.23
2019-04-06T01:09:14.932Z,54.80
2019-04-06T01:11:41.974Z,52.00
2019-04-06T01:14:08.796Z,70.00
2019-04-06T01:16:35.403Z,46.23
2019-04-06T01:19:02.172Z,54.93
2019-04-06T01:21:28.788Z,53.10
2019-04-06T01:23:55.543Z,48.77
2019-04-06T01:26:22.567Z,49.73
2019-04-06T01:28:49.157Z,55.70
2019-04-06T01:31:15.816Z,49.20
2019-04-06T01:33:42.635Z,47.17
2019-04-06T01:36:09.456Z,54.20
2019-04-06T01:38:36.099Z,60.40
2019-04-06T01:41:02.898Z,51.63
2019-04-06T01:43:29.928Z,58.37
2019-04-06T01:45:56.580Z,52.30
2019-04-06T01:48:23.321Z,55.53
2019-04-06T01:50:49.996Z,52.83
2019-04-06T01:53:16.659Z,46.00
2019-04-06T01:55:43.514Z,55.90
2019-04-06T01:58:10.271Z,45.97
2019-04-06T02:00:39.854Z,58.57
2019-04-06T02:03:06.605Z,54.53
2019-04-06T02:05:33.265Z,52.37
2019-04-06T02:07:59.905Z,59.80
2019-04-06T02:10:26.772Z,56.73
2019-04-06T02:12:53.412Z,57.03
2019-04-06T02:15:20.884Z,53.43
2019-04-06T02:17:47.558Z,55.87
2019-04-06T02:20:14.380Z,49.60
2019-04-06T02:22:41.007Z,57.60
2019-04-06T02:25:07.927Z,55.90
2019-04-06T02:27:34.530Z,50.53
2019-04-06T02:30:19.674Z,55.00
2019-04-06T02:32:54.919Z,53.13
2019-04-06T02:35:35.867Z,59.17
2019-04-06T02:38:10.981Z,52.47
2019-04-06T02:40:52.495Z,57.80
2019-04-06T02:43:24.593Z,53.30
2019-04-06T02:45:51.496Z,57.20
2019-04-06T02:48:18.506Z,49.17
2019-04-06T02:50:45.156Z,53.83
2019-04-06T02:53:12.088Z,50.47
2019-04-06T02:55:38.806Z,47.87
2019-04-06T02:58:05.413Z,47.90
2019-04-06T03:00:32.311Z,55.73
2019-04-06T03:02:59.192Z,52.43
2019-04-06T03:05:26.319Z,53.23
2019-04-06T03:07:53.104Z,48.40
2019-04-06T03:10:19.807Z,51.47
2019-04-06T03:12:46.882Z,53.50
2019-04-06T03:15:13.714Z,48.87
2019-04-06T03:17:40.474Z,49.10
2019-04-06T03:20:07.438Z,45.77
2019-04-06T03:22:34.059Z,56.03
2019-04-06T03:25:00.739Z,51.90
2019-04-06T03:27:27.670Z,48.93
2019-04-06T03:29:58.495Z,50.73
2019-04-06T03:32:23.061Z,51.40
2019-04-06T03:34:50.046Z,49.77
2019-04-06T03:37:16.767Z,47.30
2019-04-06T03:39:43.382Z,47.73
2019-04-06T03:42:11.149Z,44.93
2019-04-06T03:44:38.129Z,48.60
2019-04-06T03:47:04.778Z,45.33
2019-04-06T03:49:31.489Z,44.53
2019-04-06T03:51:58.104Z,50.80
2019-04-06T03:54:24.696Z,51.70
2019-04-06T03:56:51.288Z,48.13
2019-04-06T03:59:17.964Z,47.53
2019-04-06T04:01:44.645Z,47.50
2019-04-06T04:04:11.287Z,46.03
2019-04-06T04:06:37.906Z,47.93
2019-04-06T04:09:05.464Z,47.70
2019-04-06T04:11:32.232Z,48.10
2019-04-06T04:13:58.838Z,46.13
2019-04-06T04:16:25.659Z,50.40
2019-04-06T04:18:52.232Z,53.13
2019-04-06T04:21:18.917Z,46.63
2019-04-06T04:23:45.557Z,49.40
2019-04-06T04:26:12.268Z,41.90
2019-04-06T04:28:38.914Z,43.90
2019-04-06T04:31:05.604Z,47.63
2019-04-06T04:33:32.224Z,47.20
2019-04-06T04:35:58.989Z,48.00
2019-04-06T04:38:25.611Z,52.57
2019-04-06T04:40:52.196Z,42.23
2019-04-06T04:43:18.814Z,39.90
2019-04-06T04:45:45.456Z,56.13
2019-04-06T04:48:12.435Z,46.53
2019-04-06T04:50:39.058Z,46.70
2019-04-06T04:53:06.015Z,47.63
2019-04-06T04:55:32.625Z,45.53
2019-04-06T04:57:59.240Z,46.43
2019-04-06T05:00:25.924Z,49.80
2019-04-06T05:02:52.524Z,47.57
2019-04-06T05:05:19.140Z,60.53
2019-04-06T05:07:45.907Z,49.87
2019-04-06T05:10:13.071Z,48.23
2019-04-06T05:12:39.675Z,62.37
2019-04-06T05:15:08.614Z,45.73
2019-04-06T05:17:35.191Z,47.93
2019-04-06T05:20:01.992Z,51.83
2019-04-06T05:22:28.735Z,45.47
2019-04-06T05:24:55.416Z,47.60
2019-04-06T05:27:22.333Z,50.43
2019-04-06T05:29:49.017Z,47.70
2019-04-06T05:32:15.609Z,45.67
2019-04-06T05:34:42.201Z,52.37
2019-04-06T05:37:08.807Z,47.53
2019-04-06T05:39:35.602Z,43.57
2019-04-06T05:42:02.765Z,50.93
2019-04-06T05:44:29.612Z,46.50
2019-04-06T05:46:56.297Z,47.63
2019-04-06T05:49:22.903Z,52.90
2019-04-06T05:51:49.545Z,49.20
2019-04-06T05:54:16.167Z,48.73
2019-04-06T05:56:42.810Z,48.83
2019-04-06T05:59:10.252Z,46.60
2019-04-06T06:01:40.331Z,49.93
2019-04-06T06:04:06.169Z,43.80
2019-04-06T06:06:32.803Z,55.40
2019-04-06T06:08:59.614Z,52.57
2019-04-06T06:11:26.481Z,49.87
2019-04-06T06:13:53.249Z,51.67
2019-04-06T06:16:19.992Z,58.60
2019-04-06T06:18:46.572Z,51.40
2019-04-06T06:21:13.362Z,53.17
2019-04-06T06:23:40.097Z,48.83
2019-04-06T06:26:06.886Z,52.80
2019-04-06T06:28:33.549Z,65.83
2019-04-06T06:31:00.173Z,66.97
2019-04-06T06:33:26.860Z,51.80
2019-04-06T06:35:53.467Z,50.57
2019-04-06T06:38:20.116Z,55.97
2019-04-06T06:40:46.808Z,51.30
2019-04-06T06:43:13.637Z,48.70
2019-04-06T06:45:40.377Z,53.67
2019-04-06T06:48:06.997Z,49.97
2019-04-06T06:50:35.438Z,48.57
2019-04-06T06:53:02.156Z,50.70
2019-04-06T06:55:28.960Z,57.40
2019-04-06T06:57:55.669Z,53.97
2019-04-06T07:00:22.599Z,55.20
2019-04-06T07:02:49.635Z,60.40
2019-04-06T07:05:16.268Z,52.20
2019-04-06T07:07:42.857Z,64.33
2019-04-06T07:10:29.221Z,61.43
2019-04-06T07:12:56.066Z,62.67
2019-04-06T07:15:22.860Z,52.77
2019-04-06T07:17:49.505Z,56.00
2019-04-06T07:20:18.317Z,53.90
2019-04-06T07:22:44.939Z,52.30
2019-04-06T07:25:11.843Z,59.70
2019-04-06T07:27:38.591Z,61.70
2019-04-06T07:30:05.841Z,50.20
2019-04-06T07:32:32.451Z,57.23
2019-04-06T07:34:59.319Z,54.23
2019-04-06T07:37:26.372Z,56.80
2019-04-06T07:39:53.455Z,52.80
2019-04-06T07:42:20.272Z,59.43
2019-04-06T07:44:47.240Z,62.10
2019-04-06T07:47:13.891Z,52.93
2019-04-06T07:49:40.819Z,58.00
2019-04-06T07:52:07.473Z,54.57
2019-04-06T07:54:34.194Z,62.57
2019-04-06T07:57:01.005Z,54.97
2019-04-06T07:59:27.912Z,55.10
2019-04-06T08:01:54.620Z,48.60
2019-04-06T08:04:21.484Z,56.83
2019-04-06T08:06:48.276Z,59.03
2019-04-06T08:09:15.050Z,49.13
2019-04-06T08:11:41.777Z,50.30
2019-04-06T08:14:08.767Z,67.67
2019-04-06T08:16:35.545Z,52.27
2019-04-06T08:19:02.139Z,53.47
2019-04-06T08:21:29.005Z,58.80
2019-04-06T08:23:55.736Z,52.20
2019-04-06T08:26:22.402Z,51.97
2019-04-06T08:28:59.646Z,49.13
2019-04-06T08:31:17.674Z,54.97
2019-04-06T08:33:44.293Z,45.80
2019-04-06T08:36:11.009Z,50.90
2019-04-06T08:38:37.608Z,48.87
2019-04-06T08:41:04.201Z,49.77
2019-04-06T08:43:31.112Z,58.10
2019-04-06T08:45:58.128Z,52.53
2019-04-06T08:48:24.800Z,54.83
2019-04-06T08:50:51.520Z,53.30
2019-04-06T08:53:19.149Z,46.30
2019-04-06T08:55:45.782Z,53.70
2019-04-06T08:58:12.442Z,45.77
2019-04-06T09:00:39.229Z,63.53
2019-04-06T09:03:06.240Z,62.43
2019-04-06T09:05:34.498Z,55.20
2019-04-06T09:08:03.253Z,57.53
2019-04-06T09:10:30.063Z,58.70
2019-04-06T09:12:56.997Z,50.53
2019-04-06T09:15:24.212Z,44.57
2019-04-06T09:17:51.296Z,50.00
2019-04-06T09:20:17.944Z,54.70
2019-04-06T09:22:44.712Z,45.77
2019-04-06T09:25:11.785Z,43.67
2019-04-06T09:27:38.681Z,47.23
2019-04-06T09:30:06.219Z,53.93
2019-04-06T09:32:33.572Z,48.53
2019-04-06T09:35:01.702Z,50.90
2019-04-06T09:37:28.919Z,42.80
2019-04-06T09:39:58.082Z,42.23
2019-04-06T09:42:26.483Z,38.03
2019-04-06T09:45:03.082Z,38.07
2019-04-06T09:47:48.768Z,40.47
2019-04-06T09:50:34.130Z,38.40
2019-04-06T09:53:06.039Z,42.67
2019-04-06T09:55:39.527Z,37.00
2019-04-06T09:58:14.402Z,38.33
2019-04-06T10:00:51.735Z,37.33
2019-04-06T10:03:38.661Z,48.70
2019-04-06T10:06:34.801Z,37.40
2019-04-06T10:09:18.056Z,35.00
2019-04-06T10:12:04.967Z,37.93
2019-04-06T10:14:43.933Z,38.50
2019-04-06T10:17:39.527Z,38.70
2019-04-06T10:20:17.005Z,45.80
2019-04-06T10:23:12.549Z,38.97
2019-04-06T10:25:48.602Z,37.57
2019-04-06T10:28:41.202Z,43.43
2019-04-06T10:31:28.050Z,41.70
2019-04-06T10:34:12.520Z,39.80
2019-04-06T10:37:07.822Z,37.63
2019-04-06T10:39:54.534Z,40.97
2019-04-06T10:42:39.257Z,43.70
2019-04-06T10:45:24.781Z,44.13
2019-04-06T10:48:10.141Z,38.23
2019-04-06T10:51:00.057Z,38.23
2019-04-06T10:53:33.383Z,50.17
2019-04-06T10:56:18.108Z,36.10
2019-04-06T10:59:19.658Z,32.73
2019-04-06T11:02:14.984Z,41.87
2019-04-06T11:04:46.171Z,40.63
2019-04-06T11:07:35.567Z,33.97
2019-04-06T11:10:21.368Z,34.53
2019-04-06T11:13:14.538Z,31.90
2019-04-06T11:16:03.959Z,35.33
2019-04-06T11:21:24.190Z,31.93
2019-04-06T11:24:09.404Z,39.00
2019-04-06T11:26:41.687Z,33.47
2019-04-06T11:29:33.967Z,34.10
2019-04-06T11:32:35.968Z,41.40
2019-04-06T11:35:18.733Z,34.70
2019-04-06T11:37:57.930Z,41.70
2019-04-06T11:40:42.953Z,44.37
2019-04-06T11:43:41.668Z,33.83
2019-04-06T11:46:38.132Z,36.97
2019-04-06T11:49:27.737Z,38.97
2019-04-06T11:52:09.609Z,41.17
2019-04-06T11:54:54.636Z,36.90
2019-04-06T11:57:48.886Z,36.93
2019-04-06T12:00:27.158Z,37.10
2019-04-06T12:03:11.039Z,40.93
2019-04-06T12:06:16.488Z,42.40
2019-04-06T12:09:01.502Z,37.97
2019-04-06T12:11:36.892Z,41.67
2019-04-06T12:14:38.773Z,42.23
2019-04-06T12:17:28.797Z,35.67
2019-04-06T12:20:18.959Z,37.60
2019-04-06T12:23:09.284Z,37.97
2019-04-06T12:26:10.563Z,33.60
2019-04-06T12:28:48.630Z,39.70
2019-04-06T12:31:27.763Z,33.57
2019-04-06T12:34:23.663Z,32.57
2019-04-06T12:37:03.718Z,38.20
2019-04-06T12:39:51.501Z,38.37
2019-04-06T12:42:27.210Z,42.43
2019-04-06T12:45:18.212Z,44.97
2019-04-06T12:48:07.847Z,34.90
2019-04-06T12:50:53.315Z,39.90
2019-04-06T12:53:49.051Z,39.70
2019-04-06T12:56:50.402Z,36.27
2019-04-06T12:59:27.960Z,37.20
2019-04-06T13:02:29.199Z,33.73
2019-04-06T13:05:14.297Z,48.47
2019-04-06T13:07:59.382Z,40.73
2019-04-06T13:10:36.080Z,39.00
2019-04-06T13:13:10.053Z,31.00
2019-04-06T13:15:48.761Z,33.00
2019-04-06T13:18:39.732Z,32.60
2019-04-06T13:21:13.749Z,34.50
2019-04-06T13:23:48.898Z,38.60
2019-04-06T13:26:29.605Z,31.50
2019-04-06T13:29:04.688Z,30.17
2019-04-06T13:31:46.443Z,30.57
2019-04-06T13:34:21.984Z,31.83
2019-04-06T13:37:04.550Z,34.93
2019-04-06T13:39:53.960Z,29.17
2019-04-06T13:42:39.165Z,34.83
2019-04-06T13:45:13.805Z,32.23
2019-04-06T13:47:46.285Z,33.03
2019-04-06T13:50:23.067Z,42.43
2019-04-06T13:53:05.771Z,32.23
2019-04-06T13:55:42.170Z,25.03
2019-04-06T13:58:24.537Z,30.27
2019-04-06T14:00:59.197Z,26.40
2019-04-06T14:03:44.552Z,34.73
2019-04-06T14:06:43.009Z,25.63
2019-04-06T14:09:29.806Z,25.27
2019-04-06T14:12:15.459Z,24.70
2019-04-06T14:14:55.567Z,24.70
2019-04-06T14:17:40.551Z,28.40
2019-04-06T14:20:26.269Z,22.27
2019-04-06T14:23:18.544Z,24.23
2019-04-06T14:26:03.541Z,25.53
2019-04-06T14:28:52.109Z,28.43
2019-04-06T14:31:36.942Z,27.97
2019-04-06T14:34:22.794Z,34.77
2019-04-06T14:37:16.614Z,25.60
2019-04-06T14:40:03.454Z,24.87
2019-04-06T14:42:36.565Z,28.63
2019-04-06T14:45:19.501Z,22.50
2019-04-06T14:48:01.540Z,26.40
2019-04-06T14:50:34.589Z,27.60
2019-04-06T14:53:09.711Z,25.43
2019-04-06T14:55:48.093Z,26.60
2019-04-06T14:58:43.750Z,27.13
2019-04-06T15:01:17.363Z,35.30
2019-04-06T15:03:58.451Z,31.17
2019-04-06T15:06:43.699Z,28.33
2019-04-06T15:09:17.571Z,30.63
2019-04-06T15:11:59.513Z,34.93
2019-04-06T15:14:37.221Z,30.43
2019-04-06T15:17:15.137Z,32.67
2019-04-06T15:19:55.118Z,25.50
2019-04-06T15:22:41.532Z,23.43
2019-04-06T15:25:29.423Z,29.03
2019-04-06T15:28:24.631Z,29.87
2019-04-06T15:31:10.069Z,28.90
2019-04-06T15:33:49.130Z,28.47
2019-04-06T15:36:34.150Z,25.83
2019-04-06T15:39:12.379Z,22.83
2019-04-06T15:41:56.123Z,25.00
2019-04-06T15:44:39.125Z,26.53
2019-04-06T15:47:24.082Z,28.63
2019-04-06T15:50:00.457Z,26.57
2019-04-06T15:52:39.925Z,24.70
2019-04-06T15:55:24.813Z,26.17
2019-04-06T15:58:00.369Z,22.43
2019-04-06T16:03:11.835Z,23.47
2019-04-06T16:05:45.776Z,27.60
2019-04-06T16:08:25.449Z,25.13
2019-04-06T16:11:05.271Z,25.70
2019-04-06T16:13:40.841Z,24.83
2019-04-06T16:16:14.475Z,35.50
2019-04-06T16:19:06.994Z,29.50
2019-04-06T16:21:46.336Z,31.93
2019-04-06T16:24:20.292Z,34.73
2019-04-06T16:26:56.001Z,33.30
2019-04-06T16:29:48.309Z,28.43
2019-04-06T16:32:46.904Z,32.30
2019-04-06T16:35:42.240Z,28.30
2019-04-06T16:38:46.668Z,28.30
2019-04-06T16:41:35.969Z,30.60
2019-04-06T16:44:10.186Z,31.47
2019-04-06T16:46:50.006Z,31.30
2019-04-06T16:49:35.108Z,36.13
2019-04-06T16:52:11.816Z,31.17
2019-04-06T16:54:45.531Z,29.43
2019-04-06T16:57:34.495Z,34.80
2019-04-06T17:00:20.632Z,37.80
2019-04-06T17:03:03.321Z,30.17
2019-04-06T17:05:40.911Z,32.70
2019-04-06T17:08:30.554Z,40.93
2019-04-06T17:11:35.989Z,32.97
2019-04-06T17:14:22.568Z,30.47
2019-04-06T17:17:09.780Z,32.03
2019-04-06T17:19:51.981Z,38.60
2019-04-06T17:22:31.126Z,37.13
2019-04-06T17:25:07.491Z,35.70
2019-04-06T17:27:44.554Z,43.30
2019-04-06T17:30:25.969Z,41.53
2019-04-06T17:33:12.651Z,37.60
2019-04-06T17:35:45.738Z,34.63
2019-04-06T17:38:32.973Z,43.93
2019-04-06T17:41:18.388Z,38.97
2019-04-06T17:44:04.883Z,39.43
2019-04-06T17:46:46.168Z,41.40
2019-04-06T17:49:31.795Z,31.90
2019-04-06T17:52:04.170Z,35.73
2019-04-06T17:54:48.079Z,39.97
2019-04-06T17:57:21.055Z,31.90
2019-04-06T18:00:13.061Z,36.30
2019-04-06T18:02:51.048Z,31.93
2019-04-06T18:05:32.707Z,36.17
2019-04-06T18:08:12.090Z,34.80
2019-04-06T18:10:59.212Z,31.60
2019-04-06T18:13:40.324Z,31.90
2019-04-06T18:16:07.080Z,36.83
2019-04-06T18:18:33.878Z,37.77
2019-04-06T18:21:00.668Z,34.93
2019-04-06T18:23:27.537Z,31.87
2019-04-06T18:25:54.828Z,33.13
2019-04-06T18:28:21.616Z,42.50
2019-04-06T18:30:55.045Z,33.73
2019-04-06T18:33:23.302Z,33.27
2019-04-06T18:35:50.013Z,36.37
2019-04-06T18:38:22.133Z,32.33
2019-04-06T18:40:49.465Z,28.27
2019-04-06T18:43:16.083Z,34.80
2019-04-06T18:45:43.291Z,31.40
2019-04-06T18:48:10.452Z,32.40
2019-04-06T18:50:38.942Z,43.30
2019-04-06T18:53:06.872Z,33.37
2019-04-06T18:55:33.708Z,36.80
2019-04-06T18:58:10.807Z,36.80
2019-04-06T19:00:29.695Z,32.87
2019-04-06T19:02:56.440Z,28.60
2019-04-06T19:05:24.203Z,37.13
2019-04-06T19:07:52.063Z,32.13
2019-04-06T19:10:18.713Z,32.87
2019-04-06T19:12:45.576Z,31.67
2019-04-06T19:15:12.433Z,31.93
2019-04-06T19:17:40.035Z,34.77
2019-04-06T19:20:07.951Z,31.10
2019-04-06T19:22:35.089Z,39.00
2019-04-06T19:25:02.130Z,39.87
2019-04-06T19:27:28.875Z,35.17
2019-04-06T19:29:55.512Z,31.77
2019-04-06T19:32:22.720Z,35.10
2019-04-06T19:34:49.895Z,36.10
2019-04-06T19:37:17.012Z,34.83
2019-04-06T19:39:43.711Z,35.57
2019-04-06T19:42:10.316Z,44.13
2019-04-06T19:44:37.234Z,37.50
2019-04-06T19:47:04.224Z,36.30
2019-04-06T19:49:31.101Z,34.70
2019-04-06T19:51:58.979Z,32.70
2019-04-06T19:54:25.828Z,38.10
2019-04-06T19:56:52.939Z,35.50
2019-04-06T19:59:21.059Z,34.57
2019-04-06T20:01:48.188Z,30.43
2019-04-06T20:04:15.080Z,40.73
2019-04-06T20:06:42.109Z,32.90
2019-04-06T20:09:09.568Z,38.80
2019-04-06T20:11:36.819Z,38.53
2019-04-06T20:14:04.097Z,34.83
2019-04-06T20:16:30.944Z,37.53
2019-04-06T20:18:57.641Z,33.90
2019-04-06T20:21:25.316Z,44.13
2019-04-06T20:23:52.492Z,32.43
2019-04-06T20:26:19.628Z,36.40
2019-04-06T20:28:46.953Z,35.63
2019-04-06T20:31:13.840Z,38.90
2019-04-06T20:33:48.409Z,41.13
2019-04-06T20:36:09.218Z,36.10
2019-04-06T20:38:35.980Z,44.37
2019-04-06T20:41:03.060Z,36.80
2019-04-06T20:43:29.718Z,40.43
2019-04-06T20:45:56.591Z,46.43
2019-04-06T20:48:23.395Z,32.43
2019-04-06T20:50:50.730Z,36.50
2019-04-06T20:53:17.733Z,40.30
2019-04-06T20:55:45.062Z,39.97
2019-04-06T20:58:14.120Z,40.63
2019-04-06T21:00:40.889Z,37.00
2019-04-06T21:03:07.609Z,36.33
2019-04-06T21:05:35.642Z,36.07
2019-04-06T21:08:02.789Z,42.63
2019-04-06T21:10:32.589Z,45.13
2019-04-06T21:12:59.917Z,39.30
2019-04-06T21:15:27.297Z,36.20
2019-04-06T21:17:54.277Z,54.27
2019-04-06T21:20:21.892Z,43.40
2019-04-06T21:22:48.770Z,39.30
2019-04-06T21:25:15.929Z,35.33
2019-04-06T21:27:44.104Z,35.60
2019-04-06T21:30:20.495Z,39.70
2019-04-06T21:32:47.989Z,38.00
2019-04-06T21:35:14.839Z,36.77
2019-04-06T21:37:42.023Z,40.83
2019-04-06T21:40:09.203Z,41.40
2019-04-06T21:42:36.494Z,45.80
2019-04-06T21:45:04.994Z,36.43
2019-04-06T21:47:32.417Z,47.57
2019-04-06T21:49:59.171Z,38.20
2019-04-06T21:52:26.347Z,34.93
2019-04-06T21:54:53.440Z,35.60
2019-04-06T21:57:20.122Z,41.40
2019-04-06T21:59:46.990Z,41.73
2019-04-06T22:02:16.952Z,37.03
2019-04-06T22:04:47.439Z,44.10
2019-04-06T22:07:14.346Z,63.67
2019-04-06T22:09:41.282Z,38.60
2019-04-06T22:12:08.228Z,42.13
2019-04-06T22:14:36.030Z,37.90
2019-04-06T22:17:03.029Z,41.00
2019-04-06T22:19:30.343Z,41.60
2019-04-06T22:21:57.080Z,44.67
2019-04-06T22:24:24.005Z,41.67
2019-04-06T22:26:50.771Z,45.97
2019-04-06T22:29:17.539Z,42.33
2019-04-06T22:31:44.836Z,42.33
2019-04-06T22:34:11.616Z,43.07
2019-04-06T22:36:38.285Z,39.00
2019-04-06T22:39:05.557Z,42.57
2019-04-06T22:41:32.149Z,46.27
2019-04-06T22:43:59.044Z,44.87
2019-04-06T22:46:26.240Z,40.10
2019-04-06T22:48:52.980Z,36.13
2019-04-06T22:51:19.652Z,50.07
2019-04-06T22:53:46.948Z,50.00
2019-04-06T22:56:13.817Z,43.23
2019-04-06T22:58:41.233Z,43.63
2019-04-06T23:01:10.717Z,43.03
2019-04-06T23:04:13.320Z,49.07
2019-04-06T23:06:43.542Z,39.83
2019-04-06T23:09:10.964Z,37.03
2019-04-06T23:11:40.246Z,50.10
2019-04-06T23:14:07.824Z,35.43
2019-04-06T23:16:34.749Z,39.10
2019-04-06T23:19:01.586Z,37.60
2019-04-06T23:21:28.363Z,42.00
2019-04-06T23:23:55.582Z,39.37
2019-04-06T23:26:22.426Z,46.67
2019-04-06T23:28:49.080Z,49.67
2019-04-06T23:31:16.429Z,47.10
2019-04-06T23:33:43.232Z,43.80
2019-04-06T23:36:09.989Z,40.30
2019-04-06T23:38:37.353Z,45.43
2019-04-06T23:41:04.852Z,42.90
2019-04-06T23:43:31.477Z,32.00
2019-04-06T23:45:58.138Z,36.70
2019-04-06T23:48:24.796Z,42.73
2019-04-06T23:50:51.781Z,36.47
2019-04-06T23:53:18.423Z,35.93
2019-04-06T23:55:45.560Z,42.50
2019-04-06T23:58:13.046Z,33.20
